sensor_id;sensor_type;location;lat;lon;timestamp;pressure;altitude;pressure_sealevel;temperature;humidity
37878;BME280;23715;53.652;8.516;2022-07-10T00:04:09;102634.91;;;14.43;100.00
37878;BME280;23715;53.652;8.516;2022-07-10T00:09:09;102605.55;;;14.74;100.00
37878;BME280;23715;53.652;8.516;2022-07-10T00:14:10;102569.27;;;14.34;100.00
37878;BME280;23715;53.652;8.516;2022-07-10T00:19:11;102555.58;;;14.48;100.00
37878;BME280;23715;53.652;8.516;2022-07-10T00:24:11;102561.30;;;14.14;100.00
37878;BME280;23715;53.652;8.516;2022-07-10T00:29:12;102579.28;;;13.83;100.00
37878;BME280;23715;53.652;8.516;2022-07-10T00:34:12;102594.13;;;13.96;100.00
37878;BME280;23715;53.652;8.516;2022-07-10T00:39:13;102584.27;;;13.95;100.00
37878;BME280;23715;53.652;8.516;2022-07-10T00:44:12;102587.14;;;13.86;100.00
37878;BME280;23715;53.652;8.516;2022-07-10T00:49:13;102581.91;;;14.09;100.00
37878;BME280;23715;53.652;8.516;2022-07-10T00:54:13;102577.06;;;14.01;100.00
37878;BME280;23715;53.652;8.516;2022-07-10T00:59:14;102585.94;;;14.22;100.00
37878;BME280;23715;53.652;8.516;2022-07-10T01:04:16;102593.68;;;14.02;100.00
37878;BME280;23715;53.652;8.516;2022-07-10T01:09:17;102586.46;;;14.45;100.00
37878;BME280;23715;53.652;8.516;2022-07-10T01:14:17;102576.33;;;14.60;100.00
37878;BME280;23715;53.652;8.516;2022-07-10T01:19:18;102563.92;;;14.63;100.00
37878;BME280;23715;53.652;8.516;2022-07-10T01:24:18;102553.17;;;14.86;100.00
37878;BME280;23715;53.652;8.516;2022-07-10T01:29:20;102540.60;;;14.55;100.00
37878;BME280;23715;53.652;8.516;2022-07-10T01:34:22;102538.59;;;14.46;100.00
37878;BME280;23715;53.652;8.516;2022-07-10T01:39:22;102541.04;;;14.68;100.00
37878;BME280;23715;53.652;8.516;2022-07-10T01:44:23;102532.67;;;14.65;100.00
37878;BME280;23715;53.652;8.516;2022-07-10T01:49:24;102530.46;;;14.64;100.00
37878;BME280;23715;53.652;8.516;2022-07-10T01:54:24;102519.64;;;14.22;100.00
37878;BME280;23715;53.652;8.516;2022-07-10T01:59:24;102504.09;;;14.37;100.00
37878;BME280;23715;53.652;8.516;2022-07-10T02:04:24;102509.05;;;14.49;100.00
37878;BME280;23715;53.652;8.516;2022-07-10T02:09:41;102506.72;;;14.44;100.00
37878;BME280;23715;53.652;8.516;2022-07-10T02:14:42;102512.59;;;14.43;100.00
37878;BME280;23715;53.652;8.516;2022-07-10T02:19:42;102519.56;;;14.29;100.00
37878;BME280;23715;53.652;8.516;2022-07-10T02:24:43;102512.34;;;14.41;100.00
37878;BME280;23715;53.652;8.516;2022-07-10T02:29:43;102522.38;;;14.28;100.00
37878;BME280;23715;53.652;8.516;2022-07-10T02:34:43;102518.92;;;14.25;100.00
37878;BME280;23715;53.652;8.516;2022-07-10T02:39:44;102497.49;;;14.22;100.00
37878;BME280;23715;53.652;8.516;2022-07-10T02:44:45;102485.80;;;13.98;100.00
37878;BME280;23715;53.652;8.516;2022-07-10T02:49:45;102470.08;;;13.79;100.00
37878;BME280;23715;53.652;8.516;2022-07-10T02:54:46;102484.16;;;13.90;100.00
37878;BME280;23715;53.652;8.516;2022-07-10T02:59:49;102494.37;;;14.10;100.00
37878;BME280;23715;53.652;8.516;2022-07-10T03:04:50;102498.83;;;13.93;100.00
37878;BME280;23715;53.652;8.516;2022-07-10T03:09:50;102526.84;;;13.92;100.00
37878;BME280;23715;53.652;8.516;2022-07-10T03:14:50;102543.25;;;14.01;100.00
37878;BME280;23715;53.652;8.516;2022-07-10T03:19:51;102554.06;;;14.20;100.00
37878;BME280;23715;53.652;8.516;2022-07-10T03:24:52;102569.16;;;14.35;100.00
37878;BME280;23715;53.652;8.516;2022-07-10T03:29:52;102553.14;;;14.56;100.00
37878;BME280;23715;53.652;8.516;2022-07-10T03:34:52;102561.21;;;14.63;100.00
37878;BME280;23715;53.652;8.516;2022-07-10T03:39:52;102549.83;;;14.29;100.00
37878;BME280;23715;53.652;8.516;2022-07-10T03:44:53;102540.29;;;14.17;100.00
37878;BME280;23715;53.652;8.516;2022-07-10T03:49:54;102518.25;;;14.16;100.00
37878;BME280;23715;53.652;8.516;2022-07-10T03:54:55;102515.72;;;14.26;100.00
37878;BME280;23715;53.652;8.516;2022-07-10T03:59:55;102501.14;;;14.34;100.00
37878;BME280;23715;53.652;8.516;2022-07-10T04:04:56;102499.34;;;14.46;100.00
37878;BME280;23715;53.652;8.516;2022-07-10T04:09:56;102508.40;;;14.39;100.00
37878;BME280;23715;53.652;8.516;2022-07-10T04:14:57;102518.28;;;14.22;100.00
37878;BME280;23715;53.652;8.516;2022-07-10T04:19:58;102527.06;;;14.55;100.00
37878;BME280;23715;53.652;8.516;2022-07-10T04:24:59;102531.62;;;14.84;100.00
37878;BME280;23715;53.652;8.516;2022-07-10T04:29:59;102510.94;;;14.78;100.00
37878;BME280;23715;53.652;8.516;2022-07-10T04:35:00;102498.42;;;14.58;100.00
37878;BME280;23715;53.652;8.516;2022-07-10T04:40:01;102491.37;;;14.86;100.00
37878;BME280;23715;53.652;8.516;2022-07-10T04:45:01;102486.36;;;14.62;100.00
37878;BME280;23715;53.652;8.516;2022-07-10T04:50:02;102461.80;;;14.47;100.00
37878;BME280;23715;53.652;8.516;2022-07-10T04:55:03;102456.36;;;14.41;100.00
37878;BME280;23715;53.652;8.516;2022-07-10T05:00:04;102457.87;;;14.51;100.00
37878;BME280;23715;53.652;8.516;2022-07-10T05:05:06;102453.02;;;14.27;100.00
37878;BME280;23715;53.652;8.516;2022-07-10T05:10:07;102470.37;;;14.35;100.00
37878;BME280;23715;53.652;8.516;2022-07-10T05:15:08;102453.56;;;14.49;100.00
37878;BME280;23715;53.652;8.516;2022-07-10T05:20:10;102432.00;;;14.71;100.00
37878;BME280;23715;53.652;8.516;2022-07-10T05:25:11;102421.44;;;15.02;100.00
37878;BME280;23715;53.652;8.516;2022-07-10T05:30:11;102401.48;;;15.42;100.00
37878;BME280;23715;53.652;8.516;2022-07-10T05:35:14;102410.59;;;15.25;100.00
37878;BME280;23715;53.652;8.516;2022-07-10T05:40:15;102422.79;;;15.30;100.00
37878;BME280;23715;53.652;8.516;2022-07-10T05:45:17;102440.29;;;15.20;100.00
37878;BME280;23715;53.652;8.516;2022-07-10T05:50:17;102444.98;;;15.35;100.00
37878;BME280;23715;53.652;8.516;2022-07-10T05:55:18;102427.86;;;15.29;100.00
37878;BME280;23715;53.652;8.516;2022-07-10T06:00:18;102419.58;;;15.36;100.00
37878;BME280;23715;53.652;8.516;2022-07-10T06:05:19;102399.73;;;15.47;100.00
37878;BME280;23715;53.652;8.516;2022-07-10T06:10:19;102414.55;;;15.26;100.00
37878;BME280;23715;53.652;8.516;2022-07-10T06:15:20;102402.68;;;15.44;100.00
37878;BME280;23715;53.652;8.516;2022-07-10T06:20:21;102397.70;;;15.72;100.00
37878;BME280;23715;53.652;8.516;2022-07-10T06:25:25;102393.25;;;15.27;100.00
37878;BME280;23715;53.652;8.516;2022-07-10T06:30:25;102396.47;;;15.70;100.00
37878;BME280;23715;53.652;8.516;2022-07-10T06:35:26;102397.72;;;15.66;100.00
37878;BME280;23715;53.652;8.516;2022-07-10T06:40:28;102409.93;;;15.60;100.00
37878;BME280;23715;53.652;8.516;2022-07-10T06:45:30;102410.41;;;15.83;100.00
37878;BME280;23715;53.652;8.516;2022-07-10T06:50:31;102430.17;;;15.51;100.00
37878;BME280;23715;53.652;8.516;2022-07-10T06:55:33;102444.97;;;15.01;100.00
37878;BME280;23715;53.652;8.516;2022-07-10T07:00:34;102441.53;;;15.16;100.00
37878;BME280;23715;53.652;8.516;2022-07-10T07:05:35;102429.68;;;15.34;100.00
37878;BME280;23715;53.652;8.516;2022-07-10T07:10:36;102445.59;;;15.33;100.00
37878;BME280;23715;53.652;8.516;2022-07-10T07:15:37;102467.52;;;15.41;100.00
37878;BME280;23715;53.652;8.516;2022-07-10T07:20:39;102497.56;;;14.99;100.00
37878;BME280;23715;53.652;8.516;2022-07-10T07:25:58;102518.77;;;15.22;100.00
37878;BME280;23715;53.652;8.516;2022-07-10T07:30:58;102501.51;;;15.62;100.00
37878;BME280;23715;53.652;8.516;2022-07-10T07:35:58;102488.68;;;15.70;100.00
37878;BME280;23715;53.652;8.516;2022-07-10T07:40:58;102475.66;;;16.19;100.00
37878;BME280;23715;53.652;8.516;2022-07-10T07:46:00;102458.88;;;16.14;100.00
37878;BME280;23715;53.652;8.516;2022-07-10T07:51:00;102465.77;;;15.74;100.00
37878;BME280;23715;53.652;8.516;2022-07-10T07:56:00;102467.23;;;15.95;100.00
37878;BME280;23715;53.652;8.516;2022-07-10T08:01:01;102475.66;;;16.19;100.00
37878;BME280;23715;53.652;8.516;2022-07-10T08:06:01;102493.76;;;15.64;100.00
37878;BME280;23715;53.652;8.516;2022-07-10T08:11:02;102480.31;;;15.85;100.00
37878;BME280;23715;53.652;8.516;2022-07-10T08:16:03;102471.17;;;15.63;100.00
37878;BME280;23715;53.652;8.516;2022-07-10T08:21:04;102485.13;;;15.19;100.00
37878;BME280;23715;53.652;8.516;2022-07-10T08:26:05;102494.73;;;15.23;100.00
37878;BME280;23715;53.652;8.516;2022-07-10T08:31:04;102506.69;;;15.26;100.00
37878;BME280;23715;53.652;8.516;2022-07-10T08:36:05;102509.51;;;15.13;100.00
37878;BME280;23715;53.652;8.516;2022-07-10T08:41:06;102489.31;;;15.46;100.00
37878;BME280;23715;53.652;8.516;2022-07-10T08:46:06;102458.83;;;15.93;100.00
37878;BME280;23715;53.652;8.516;2022-07-10T08:51:07;102439.41;;;16.14;100.00
37878;BME280;23715;53.652;8.516;2022-07-10T08:56:10;102420.66;;;16.38;100.00
37878;BME280;23715;53.652;8.516;2022-07-10T09:01:10;102417.09;;;16.37;100.00
37878;BME280;23715;53.652;8.516;2022-07-10T09:06:10;102420.72;;;16.90;100.00
37878;BME280;23715;53.652;8.516;2022-07-10T09:11:18;102418.41;;;16.85;100.00
37878;BME280;23715;53.652;8.516;2022-07-10T09:16:27;102421.52;;;17.02;100.00
37878;BME280;23715;53.652;8.516;2022-07-10T09:21:31;102430.98;;;16.86;100.00
37878;BME280;23715;53.652;8.516;2022-07-10T09:26:31;102445.72;;;16.36;100.00
37878;BME280;23715;53.652;8.516;2022-07-10T09:31:54;102468.13;;;15.79;100.00
37878;BME280;23715;53.652;8.516;2022-07-10T09:36:55;102484.64;;;15.76;100.00
37878;BME280;23715;53.652;8.516;2022-07-10T09:41:56;102488.80;;;15.86;100.00
37878;BME280;23715;53.652;8.516;2022-07-10T09:46:57;102498.06;;;15.89;100.00
37878;BME280;23715;53.652;8.516;2022-07-10T09:51:57;102493.97;;;16.00;100.00
37878;BME280;23715;53.652;8.516;2022-07-10T09:57:00;102498.68;;;15.64;100.00
37878;BME280;23715;53.652;8.516;2022-07-10T10:02:03;102519.13;;;16.02;100.00
37878;BME280;23715;53.652;8.516;2022-07-10T10:07:04;102520.94;;;16.18;100.00
37878;BME280;23715;53.652;8.516;2022-07-10T10:12:21;102517.33;;;16.24;100.00
37878;BME280;23715;53.652;8.516;2022-07-10T10:17:20;102504.05;;;16.47;100.00
37878;BME280;23715;53.652;8.516;2022-07-10T10:22:22;102470.14;;;17.05;100.00
37878;BME280;23715;53.652;8.516;2022-07-10T10:27:24;102469.16;;;17.36;100.00
37878;BME280;23715;53.652;8.516;2022-07-10T10:32:25;102469.16;;;17.36;100.00
37878;BME280;23715;53.652;8.516;2022-07-10T10:42:42;102465.23;;;16.35;100.00
37878;BME280;23715;53.652;8.516;2022-07-10T10:48:00;102485.24;;;16.82;100.00
37878;BME280;23715;53.652;8.516;2022-07-10T10:53:01;102480.78;;;16.81;100.00
37878;BME280;23715;53.652;8.516;2022-07-10T10:58:17;102479.75;;;16.67;100.00
37878;BME280;23715;53.652;8.516;2022-07-10T11:03:17;102476.89;;;16.95;100.00
37878;BME280;23715;53.652;8.516;2022-07-10T11:08:37;102480.13;;;17.25;100.00
37878;BME280;23715;53.652;8.516;2022-07-10T11:13:39;102505.06;;;17.30;100.00
37878;BME280;23715;53.652;8.516;2022-07-10T11:18:41;102492.99;;;17.08;100.00
37878;BME280;23715;53.652;8.516;2022-07-10T11:28:59;102500.19;;;17.18;100.00
37878;BME280;23715;53.652;8.516;2022-07-10T11:34:01;102508.14;;;16.95;100.00
37878;BME280;23715;53.652;8.516;2022-07-10T11:39:10;102516.66;;;17.17;100.00
37878;BME280;23715;53.652;8.516;2022-07-10T11:44:06;102511.81;;;16.73;100.00
37878;BME280;23715;53.652;8.516;2022-07-10T11:49:06;102531.75;;;16.94;100.00
37878;BME280;23715;53.652;8.516;2022-07-10T11:54:13;102562.43;;;16.85;100.00
37878;BME280;23715;53.652;8.516;2022-07-10T11:59:15;102579.58;;;16.80;100.00
37878;BME280;23715;53.652;8.516;2022-07-10T12:04:21;102545.02;;;16.82;100.00
37878;BME280;23715;53.652;8.516;2022-07-10T12:09:24;102539.89;;;17.62;100.00
37878;BME280;23715;53.652;8.516;2022-07-10T12:14:26;102523.75;;;16.87;100.00
37878;BME280;23715;53.652;8.516;2022-07-10T12:19:30;102514.03;;;17.36;100.00
37878;BME280;23715;53.652;8.516;2022-07-10T12:24:32;102483.83;;;17.09;100.00
37878;BME280;23715;53.652;8.516;2022-07-10T12:29:33;102464.73;;;16.84;100.00
37878;BME280;23715;53.652;8.516;2022-07-10T12:34:35;102468.34;;;17.46;100.00
37878;BME280;23715;53.652;8.516;2022-07-10T12:39:38;102453.56;;;17.39;100.00
37878;BME280;23715;53.652;8.516;2022-07-10T12:45:14;102511.66;;;17.37;100.00
37878;BME280;23715;53.652;8.516;2022-07-10T12:50:16;102469.24;;;17.66;100.00
37878;BME280;23715;53.652;8.516;2022-07-10T12:55:21;102479.83;;;16.97;100.00
37878;BME280;23715;53.652;8.516;2022-07-10T13:00:29;102501.96;;;17.14;100.00
37878;BME280;23715;53.652;8.516;2022-07-10T13:05:37;102491.84;;;17.41;100.00
37878;BME280;23715;53.652;8.516;2022-07-10T13:10:41;102496.98;;;17.50;100.00
37878;BME280;23715;53.652;8.516;2022-07-10T13:15:43;102514.92;;;17.31;100.00
37878;BME280;23715;53.652;8.516;2022-07-10T13:20:45;102514.33;;;16.65;100.00
37878;BME280;23715;53.652;8.516;2022-07-10T13:25:46;102523.58;;;17.15;100.00
37878;BME280;23715;53.652;8.516;2022-07-10T13:30:47;102514.92;;;17.31;100.00
37878;BME280;23715;53.652;8.516;2022-07-10T13:35:48;102515.17;;;17.49;100.00
37878;BME280;23715;53.652;8.516;2022-07-10T13:40:48;102507.44;;;17.39;100.00
37878;BME280;23715;53.652;8.516;2022-07-10T13:45:48;102501.68;;;17.63;100.00
37878;BME280;23715;53.652;8.516;2022-07-10T13:50:49;102542.46;;;17.02;100.00
37878;BME280;23715;53.652;8.516;2022-07-10T13:55:49;102540.36;;;17.21;100.00
37878;BME280;23715;53.652;8.516;2022-07-10T14:00:50;102543.68;;;17.18;100.00
37878;BME280;23715;53.652;8.516;2022-07-10T14:05:51;102557.67;;;17.50;100.00
37878;BME280;23715;53.652;8.516;2022-07-10T14:10:52;102568.69;;;17.12;100.00
37878;BME280;23715;53.652;8.516;2022-07-10T14:15:53;102565.44;;;17.70;100.00
37878;BME280;23715;53.652;8.516;2022-07-10T14:20:54;102544.63;;;18.00;100.00
37878;BME280;23715;53.652;8.516;2022-07-10T14:26:04;102539.03;;;17.76;100.00
37878;BME280;23715;53.652;8.516;2022-07-10T14:31:06;102532.13;;;17.47;100.00
37878;BME280;23715;53.652;8.516;2022-07-10T14:36:07;102548.91;;;17.62;100.00
37878;BME280;23715;53.652;8.516;2022-07-10T14:41:07;102536.14;;;17.68;100.00
37878;BME280;23715;53.652;8.516;2022-07-10T14:46:07;102570.20;;;16.84;100.00
37878;BME280;23715;53.652;8.516;2022-07-10T14:51:08;102615.17;;;16.77;100.00
37878;BME280;23715;53.652;8.516;2022-07-10T14:56:08;102633.61;;;16.68;100.00
37878;BME280;23715;53.652;8.516;2022-07-10T15:01:10;102635.24;;;16.97;100.00
37878;BME280;23715;53.652;8.516;2022-07-10T15:06:10;102622.60;;;16.64;100.00
37878;BME280;23715;53.652;8.516;2022-07-10T15:11:11;102635.59;;;16.66;100.00
37878;BME280;23715;53.652;8.516;2022-07-10T15:16:11;102637.42;;;16.65;100.00
37878;BME280;23715;53.652;8.516;2022-07-10T15:21:12;102661.46;;;16.26;100.00
37878;BME280;23715;53.652;8.516;2022-07-10T15:26:12;102659.16;;;16.65;100.00
37878;BME280;23715;53.652;8.516;2022-07-10T15:31:12;102640.16;;;17.24;100.00
37878;BME280;23715;53.652;8.516;2022-07-10T15:36:13;102593.08;;;17.60;100.00
37878;BME280;23715;53.652;8.516;2022-07-10T15:42:12;102561.48;;;17.23;100.00
37878;BME280;23715;53.652;8.516;2022-07-10T15:47:13;102544.63;;;17.44;100.00
37878;BME280;23715;53.652;8.516;2022-07-10T15:52:14;102530.38;;;17.62;100.00
37878;BME280;23715;53.652;8.516;2022-07-10T15:57:15;102520.10;;;17.34;100.00
37878;BME280;23715;53.652;8.516;2022-07-10T16:02:15;102518.19;;;17.25;100.00
37878;BME280;23715;53.652;8.516;2022-07-10T16:07:15;102517.44;;;16.92;100.00
37878;BME280;23715;53.652;8.516;2022-07-10T16:12:16;102521.50;;;17.44;100.00
37878;BME280;23715;53.652;8.516;2022-07-10T16:17:16;102508.50;;;17.48;100.00
37878;BME280;23715;53.652;8.516;2022-07-10T16:22:17;102484.90;;;17.58;100.00
37878;BME280;23715;53.652;8.516;2022-07-10T16:27:18;102470.94;;;18.07;100.00
37878;BME280;23715;53.652;8.516;2022-07-10T16:32:18;102459.44;;;17.59;100.00
37878;BME280;23715;53.652;8.516;2022-07-10T16:37:18;102461.80;;;17.43;100.00
37878;BME280;23715;53.652;8.516;2022-07-10T16:42:19;102477.27;;;17.67;100.00
37878;BME280;23715;53.652;8.516;2022-07-10T16:47:19;102467.22;;;18.38;100.00
37878;BME280;23715;53.652;8.516;2022-07-10T16:52:20;102459.05;;;18.38;100.00
37878;BME280;23715;53.652;8.516;2022-07-10T16:57:20;102455.18;;;18.21;100.00
37878;BME280;23715;53.652;8.516;2022-07-10T17:02:20;102470.81;;;18.58;100.00
37878;BME280;23715;53.652;8.516;2022-07-10T17:07:20;102453.64;;;17.43;100.00
37878;BME280;23715;53.652;8.516;2022-07-10T17:12:20;102474.33;;;17.40;100.00
37878;BME280;23715;53.652;8.516;2022-07-10T17:17:21;102465.16;;;17.66;100.00
37878;BME280;23715;53.652;8.516;2022-07-10T17:22:22;102449.66;;;17.97;100.00
37878;BME280;23715;53.652;8.516;2022-07-10T17:27:23;102463.62;;;17.48;100.00
37878;BME280;23715;53.652;8.516;2022-07-10T17:32:24;102473.64;;;17.72;100.00
37878;BME280;23715;53.652;8.516;2022-07-10T17:37:24;102449.02;;;17.99;100.00
37878;BME280;23715;53.652;8.516;2022-07-10T17:42:25;102442.55;;;17.90;100.00
37878;BME280;23715;53.652;8.516;2022-07-10T17:47:25;102465.44;;;17.53;100.00
37878;BME280;23715;53.652;8.516;2022-07-10T17:52:26;102478.20;;;17.47;100.00
37878;BME280;23715;53.652;8.516;2022-07-10T17:57:26;102465.55;;;17.76;100.00
37878;BME280;23715;53.652;8.516;2022-07-10T18:02:27;102456.24;;;17.79;100.00
37878;BME280;23715;53.652;8.516;2022-07-10T18:07:28;102466.80;;;17.22;100.00
37878;BME280;23715;53.652;8.516;2022-07-10T18:12:29;102488.27;;;16.94;100.00
37878;BME280;23715;53.652;8.516;2022-07-10T18:17:30;102492.45;;;16.72;100.00
37878;BME280;23715;53.652;8.516;2022-07-10T18:22:30;102521.39;;;16.56;100.00
37878;BME280;23715;53.652;8.516;2022-07-10T18:27:30;102525.49;;;16.50;100.00
37878;BME280;23715;53.652;8.516;2022-07-10T18:32:31;102526.09;;;16.86;100.00
37878;BME280;23715;53.652;8.516;2022-07-10T18:37:49;102516.66;;;16.37;100.00
37878;BME280;23715;53.652;8.516;2022-07-10T18:42:50;102546.30;;;16.34;100.00
37878;BME280;23715;53.652;8.516;2022-07-10T18:47:51;102557.62;;;16.45;100.00
37878;BME280;23715;53.652;8.516;2022-07-10T18:52:51;102544.98;;;16.55;100.00
37878;BME280;23715;53.652;8.516;2022-07-10T18:57:51;102529.84;;;16.74;100.00
37878;BME280;23715;53.652;8.516;2022-07-10T19:02:52;102542.06;;;16.47;100.00
37878;BME280;23715;53.652;8.516;2022-07-10T19:07:52;102534.40;;;17.06;100.00
37878;BME280;23715;53.652;8.516;2022-07-10T19:12:53;102523.45;;;16.64;100.00
37878;BME280;23715;53.652;8.516;2022-07-10T19:17:54;102541.19;;;16.52;100.00
37878;BME280;23715;53.652;8.516;2022-07-10T19:22:55;102527.78;;;16.66;100.00
37878;BME280;23715;53.652;8.516;2022-07-10T19:27:56;102538.52;;;16.41;100.00
37878;BME280;23715;53.652;8.516;2022-07-10T19:32:58;102554.34;;;16.30;100.00
37878;BME280;23715;53.652;8.516;2022-07-10T19:37:59;102563.20;;;16.70;100.00
37878;BME280;23715;53.652;8.516;2022-07-10T19:43:00;102540.41;;;17.30;100.00
37878;BME280;23715;53.652;8.516;2022-07-10T19:48:00;102531.45;;;17.40;100.00
37878;BME280;23715;53.652;8.516;2022-07-10T19:53:02;102541.69;;;16.73;100.00
37878;BME280;23715;53.652;8.516;2022-07-10T19:58:03;102581.65;;;16.55;100.00
37878;BME280;23715;53.652;8.516;2022-07-10T20:03:04;102568.39;;;16.73;100.00
37878;BME280;23715;53.652;8.516;2022-07-10T20:08:05;102563.76;;;16.91;100.00
37878;BME280;23715;53.652;8.516;2022-07-10T20:13:05;102548.21;;;16.87;100.00
37878;BME280;23715;53.652;8.516;2022-07-10T20:18:09;102547.39;;;16.43;100.00
37878;BME280;23715;53.652;8.516;2022-07-10T20:23:09;102565.10;;;16.20;100.00
37878;BME280;23715;53.652;8.516;2022-07-10T20:28:10;102561.02;;;16.64;100.00
37878;BME280;23715;53.652;8.516;2022-07-10T20:33:10;102552.06;;;16.85;100.00
37878;BME280;23715;53.652;8.516;2022-07-10T20:38:10;102565.27;;;16.46;100.00
37878;BME280;23715;53.652;8.516;2022-07-10T20:43:11;102586.13;;;16.51;100.00
37878;BME280;23715;53.652;8.516;2022-07-10T20:48:10;102592.95;;;16.34;100.00
37878;BME280;23715;53.652;8.516;2022-07-10T20:53:11;102603.20;;;16.30;100.00
37878;BME280;23715;53.652;8.516;2022-07-10T20:58:11;102636.31;;;16.07;100.00
37878;BME280;23715;53.652;8.516;2022-07-10T21:03:11;102640.72;;;16.25;100.00
37878;BME280;23715;53.652;8.516;2022-07-10T21:08:11;102638.38;;;16.32;100.00
37878;BME280;23715;53.652;8.516;2022-07-10T21:13:13;102624.34;;;16.65;100.00
37878;BME280;23715;53.652;8.516;2022-07-10T21:18:15;102602.48;;;17.04;100.00
37878;BME280;23715;53.652;8.516;2022-07-10T21:23:15;102592.66;;;16.81;100.00
37878;BME280;23715;53.652;8.516;2022-07-10T21:28:16;102596.02;;;16.35;100.00
37878;BME280;23715;53.652;8.516;2022-07-10T21:33:17;102635.69;;;16.09;100.00
37878;BME280;23715;53.652;8.516;2022-07-10T21:38:17;102639.47;;;16.35;100.00
37878;BME280;23715;53.652;8.516;2022-07-10T21:43:17;102629.22;;;16.38;100.00
37878;BME280;23715;53.652;8.516;2022-07-10T21:48:18;102617.64;;;16.31;100.00
37878;BME280;23715;53.652;8.516;2022-07-10T21:53:18;102612.67;;;16.47;100.00
37878;BME280;23715;53.652;8.516;2022-07-10T21:58:18;102580.50;;;16.64;100.00
37878;BME280;23715;53.652;8.516;2022-07-10T22:03:18;102549.16;;;17.13;100.00
37878;BME280;23715;53.652;8.516;2022-07-10T22:08:19;102513.83;;;16.92;100.00
37878;BME280;23715;53.652;8.516;2022-07-10T22:13:19;102509.22;;;16.77;100.00
37878;BME280;23715;53.652;8.516;2022-07-10T22:18:19;102499.41;;;17.07;100.00
37878;BME280;23715;53.652;8.516;2022-07-10T22:23:20;102483.81;;;16.93;100.00
37878;BME280;23715;53.652;8.516;2022-07-10T22:28:21;102470.17;;;16.84;100.00
37878;BME280;23715;53.652;8.516;2022-07-10T22:33:21;102456.47;;;17.01;100.00
37878;BME280;23715;53.652;8.516;2022-07-10T22:38:21;102436.39;;;17.07;100.00
37878;BME280;23715;53.652;8.516;2022-07-10T22:43:21;102423.81;;;17.06;100.00
37878;BME280;23715;53.652;8.516;2022-07-10T22:48:23;102421.81;;;16.93;100.00
37878;BME280;23715;53.652;8.516;2022-07-10T22:53:23;102441.98;;;16.90;100.00
37878;BME280;23715;53.652;8.516;2022-07-10T22:58:25;102453.53;;;16.98;100.00
37878;BME280;23715;53.652;8.516;2022-07-10T23:03:26;102450.97;;;16.70;100.00
37878;BME280;23715;53.652;8.516;2022-07-10T23:08:27;102468.91;;;16.61;100.00
37878;BME280;23715;53.652;8.516;2022-07-10T23:13:28;102473.43;;;16.72;100.00
37878;BME280;23715;53.652;8.516;2022-07-10T23:18:29;102461.98;;;16.89;100.00
37878;BME280;23715;53.652;8.516;2022-07-10T23:23:29;102456.02;;;16.69;100.00
37878;BME280;23715;53.652;8.516;2022-07-10T23:28:29;102461.20;;;16.51;100.00
37878;BME280;23715;53.652;8.516;2022-07-10T23:33:30;102470.05;;;16.79;100.00
37878;BME280;23715;53.652;8.516;2022-07-10T23:38:32;102455.84;;;16.61;100.00
37878;BME280;23715;53.652;8.516;2022-07-10T23:43:32;102455.52;;;16.22;100.00
37878;BME280;23715;53.652;8.516;2022-07-10T23:48:32;102453.94;;;16.19;100.00
37878;BME280;23715;53.652;8.516;2022-07-10T23:53:50;102450.53;;;16.06;100.00
37878;BME280;23715;53.652;8.516;2022-07-10T23:58:50;102454.72;;;16.36;100.00
